Time;durP1;ratioP1;P1;durP2;ratioP2;P2;SDS_P1;SDS_P2;PMS_P1;PMS_P2;Temp;Humidity;BMP_temperature;BMP_pressure;BME280_temperature;BME280_humidity;BME280_pressure;Samples;Min_cycle;Max_cycle;Signal;HPM_P1;HPM_P2
2022/01/25 00:10:01;;;;;;;67.68;26.92;;;;;;;;;;5239859;28;20041;-82
2022/01/25 00:26:17;;;;;;;95.70;27.35;;;;;;;;;;5238529;28;20059;-82
2022/01/25 00:29:03;;;;;;;85.38;25.45;;;;;;;;;;5238919;28;20574;-82
2022/01/25 00:31:39;;;;;;;72.82;22.75;;;0.90;99.90;;;;;;5226187;28;20122;-82
2022/01/25 00:34:12;;;;;;;105.82;22.42;;;;;;;;;;5236850;28;20051;-82
2022/01/25 00:36:45;;;;;;;71.67;22.67;;;;;;;;;;5234135;28;20698;-82
2022/01/25 00:39:18;;;;;;;64.17;22.53;;;;;;;;;;5232078;28;20279;-82
2022/01/25 00:41:51;;;;;;;245.97;29.90;;;;;;;;;;5232798;28;20053;-81
2022/01/25 00:44:30;;;;;;;153.18;26.05;;;;;;;;;;5218417;28;20701;-81
2022/01/25 00:47:05;;;;;;;58.75;21.42;;;0.80;99.90;;;;;;5230521;28;20067;-83
2022/01/25 00:49:40;;;;;;;94.53;25.52;;;;;;;;;;5232904;28;20059;-82
2022/01/25 00:55:05;;;;;;;99.45;23.13;;;;;;;;;;5233264;28;20048;-81
2022/01/25 00:57:38;;;;;;;69.30;24.90;;;;;;;;;;5232568;28;20047;-82
2022/01/25 01:00:12;;;;;;;74.97;25.30;;;;;;;;;;5204822;28;20049;-82
2022/01/25 01:02:44;;;;;;;;;;;0.80;99.90;;;;;;5209931;28;20048;-82
2022/01/25 01:05:17;;;;;;;56.92;18.55;;;;;;;;;;5212981;28;19928;-82
2022/01/25 01:07:50;;;;;;;50.05;19.08;;;;;;;;;;5224386;28;20056;-81
2022/01/25 01:10:25;;;;;;;44.43;18.40;;;;;;;;;;5229231;28;20057;-81
2022/01/25 01:13:27;;;;;;;51.95;18.67;;;;;;;;;;5232122;28;20313;-81
2022/01/25 01:16:01;;;;;;;125.60;20.95;;;;;;;;;;5233993;28;20543;-82
2022/01/25 01:30:05;;;;;;;80.38;22.80;;;;;;;;;;5173992;28;20048;-81
2022/01/25 01:48:54;;;;;;;96.95;21.58;;;0.80;99.90;;;;;;5233822;28;20115;-81
2022/01/25 01:51:33;;;;;;;88.00;19.73;;;0.80;99.90;;;;;;5229475;28;20420;-81
2022/01/25 01:54:11;;;;;;;67.10;20.80;;;0.80;99.90;;;;;;5197172;28;20045;-81
2022/01/25 01:56:44;;;;;;;91.15;21.30;;;;;;;;;;5231721;28;20033;-81
2022/01/25 01:59:18;;;;;;;81.85;23.25;;;;;;;;;;5231794;28;20036;-81
2022/01/25 02:01:50;;;;;;;;;;;0.80;99.90;;;;;;5230608;28;20052;-81
2022/01/25 02:04:24;;;;;;;97.32;20.63;;;;;;;;;;5233188;28;19963;-83
2022/01/25 02:06:56;;;;;;;71.37;21.30;;;;;;;;;;5231741;28;20048;-81
2022/01/25 02:09:29;;;;;;;93.63;21.90;;;;;;;;;;5234644;28;20055;-82
2022/01/25 02:12:03;;;;;;;39.13;15.27;;;;;;;;;;5231756;28;20052;-82
2022/01/25 02:14:37;;;;;;;;;;;0.70;99.90;;;;;;5235625;28;20048;-81
2022/01/25 02:22:24;;;;;;;62.78;19.48;;;;;;;;;;5235902;28;20204;-81
2022/01/25 02:23:01;;;;;;;46.90;16.65;;;;;;;;;;5234206;28;20048;-81
2022/01/25 02:25:33;;;;;;;42.10;15.98;;;;;;;;;;5235949;28;20037;-81
2022/01/25 02:28:06;;;;;;;45.50;18.10;;;;;;;;;;5226442;28;20048;-81
2022/01/25 02:30:40;;;;;;;51.97;18.20;;;0.70;99.90;;;;;;5226391;28;20951;-81
2022/01/25 02:33:13;;;;;;;92.35;19.38;;;;;;;;;;5191986;28;20063;-81
2022/01/25 02:35:46;;;;;;;89.63;19.70;;;;;;;;;;5208063;28;20044;-80
2022/01/25 02:38:25;;;;;;;65.90;18.52;;;0.80;99.90;;;;;;5225843;28;20040;-80
2022/01/25 02:41:01;;;;;;;125.38;19.00;;;0.70;99.90;;;;;;5226308;28;20596;-81
2022/01/25 02:43:35;;;;;;;70.95;20.55;;;;;;;;;;5226903;28;20488;-80
2022/01/25 02:48:51;;;;;;;109.15;21.45;;;0.70;99.90;;;;;;5232151;28;20312;-80
2022/01/25 02:51:30;;;;;;;66.32;20.70;;;0.70;99.90;;;;;;5224734;28;20531;-82
2022/01/25 02:54:04;;;;;;;60.17;18.23;;;0.70;99.90;;;;;;5208026;28;20048;-80
2022/01/25 02:56:40;;;;;;;66.43;18.70;;;0.80;99.90;;;;;;5207091;28;20044;-81
2022/01/25 02:59:14;;;;;;;62.95;18.02;;;0.80;99.90;;;;;;5208629;28;20056;-80
2022/01/25 03:01:49;;;;;;;72.03;18.58;;;0.80;99.90;;;;;;5210839;28;20048;-82
2022/01/25 03:04:23;;;;;;;56.33;17.30;;;0.90;99.90;;;;;;5229923;28;20777;-81
2022/01/25 03:06:56;;;;;;;66.05;17.42;;;;;;;;;;5211502;28;20594;-80
2022/01/25 03:09:29;;;;;;;51.90;16.77;;;;;;;;;;5209044;28;20052;-81
2022/01/25 03:12:32;;;;;;;46.13;15.93;;;;;;;;;;5229028;28;20059;-80
2022/01/25 03:15:30;;;;;;;57.50;17.25;;;;;;;;;;5235089;28;22025;-81
2022/01/25 03:18:12;;;;;;;64.60;16.42;;;0.90;99.90;;;;;;5223541;28;20044;-81
2022/01/25 03:20:52;;;;;;;66.32;18.17;;;;;;;;;;5231066;28;20059;-81
2022/01/25 03:23:24;;;;;;;160.15;19.30;;;;;;;;;;5224830;28;20048;-80
2022/01/25 03:25:57;;;;;;;142.87;19.40;;;;;;;;;;5228654;28;20045;-80
2022/01/25 03:28:30;;;;;;;64.10;17.10;;;;;;;;;;5223100;28;20052;-81
2022/01/25 03:31:03;;;;;;;59.53;16.27;;;;;;;;;;5227196;28;20044;-79
2022/01/25 03:33:36;;;;;;;68.25;16.92;;;;;;;;;;5228973;28;20049;-81
2022/01/25 03:36:09;;;;;;;69.15;14.60;;;;;;;;;;5211659;28;20590;-81
2022/01/25 03:38:42;;;;;;;86.07;19.58;;;;;;;;;;5225842;28;20048;-81
2022/01/25 03:41:15;;;;;;;164.15;22.55;;;;;;;;;;5226655;28;20424;-81
2022/01/25 03:43:53;;;;;;;104.25;21.15;;;;;;;;;;5211151;28;20046;-81
2022/01/25 03:46:52;;;;;;;80.28;21.90;;;0.50;99.90;;;;;;5212999;28;20668;-80
2022/01/25 03:52:26;;;;;;;73.38;19.33;;;0.40;99.90;;;;;;5230090;28;20045;-82
2022/01/25 03:55:00;;;;;;;83.85;19.25;;;;;;;;;;5223235;28;20723;-81
2022/01/25 03:57:32;;;;;;;100.18;19.73;;;;;;;;;;5228319;28;20060;-80
2022/01/25 04:00:07;;;;;;;88.33;18.60;;;;;;;;;;5206545;28;20066;-82
2022/01/25 04:02:53;;;;;;;78.18;19.35;;;;;;;;;;5226227;28;20048;-82
2022/01/25 04:05:47;;;;;;;63.85;19.60;;;;;;;;;;5209277;28;20555;-81
2022/01/25 04:08:20;;;;;;;86.38;20.42;;;;;;;;;;5228450;28;20051;-81
2022/01/25 04:10:53;;;;;;;119.47;18.95;;;;;;;;;;5226597;28;20047;-82
2022/01/25 04:13:26;;;;;;;95.15;19.77;;;;;;;;;;5226158;28;20083;-81
2022/01/25 04:16:07;;;;;;;107.60;20.77;;;;;;;;;;5224108;28;20480;-81
2022/01/25 04:18:54;;;;;;;74.57;20.48;;;;;;;;;;5228832;28;20306;-82
2022/01/25 04:26:59;;;;;;;62.53;18.60;;;;;;;;;;5213452;28;20052;-82
2022/01/25 04:29:33;;;;;;;71.57;19.98;;;;;;;;;;5190886;28;20059;-81
2022/01/25 04:32:07;;;;;;;65.20;17.87;;;;;;;;;;5205454;28;20041;-81
2022/01/25 04:34:45;;;;;;;65.72;17.90;;;;;;;;;;5202228;28;20047;-82
2022/01/25 04:49:03;;;;;;;53.67;15.93;;;;;;;;;;5228474;28;20053;-82
2022/01/25 04:51:50;;;;;;;44.78;14.40;;;;;;;;;;5199249;28;20537;-81
2022/01/25 05:00:03;;;;;;;41.42;12.90;;;;;;;;;;5199190;28;20056;-81
2022/01/25 05:03:05;;;;;;;33.42;13.18;;;;;;;;;;5225642;28;20055;-81
2022/01/25 05:05:55;;;;;;;49.92;15.48;;;;;;;;;;5215032;28;20051;-82
2022/01/25 05:16:34;;;;;;;42.63;13.93;;;;;;;;;;5214503;28;20045;-83
2022/01/25 05:24:40;;;;;;;34.42;13.07;;;0.70;99.90;;;;;;5224708;28;20541;-81
2022/01/25 05:27:17;;;;;;;35.30;12.40;;;0.80;99.90;;;;;;5225159;28;20052;-81
2022/01/25 05:29:50;;;;;;;37.85;13.63;;;;;;;;;;5220406;28;20036;-82
2022/01/25 05:32:23;;;;;;;36.45;12.55;;;;;;;;;;5218901;28;20036;-82
2022/01/25 05:34:56;;;;;;;40.65;12.43;;;;;;;;;;5198703;28;20048;-83
2022/01/25 05:37:31;;;;;;;42.07;14.07;;;;;;;;;;5220708;28;20527;-81
2022/01/25 05:40:07;;;;;;;37.63;13.30;;;;;;;;;;5222016;28;20048;-82
2022/01/25 05:45:26;;;;;;;37.00;13.60;;;;;;;;;;5220436;28;21383;-82
2022/01/25 05:48:00;;;;;;;33.47;12.55;;;;;;;;;;5216376;28;20044;-81
2022/01/25 05:50:33;;;;;;;44.07;13.13;;;;;;;;;;5192485;28;20452;-82
2022/01/25 05:53:06;;;;;;;31.13;12.30;;;;;;;;;;5210439;28;20056;-82
2022/01/25 05:55:39;;;;;;;34.58;12.15;;;;;;;;;;5210670;28;20901;-83
2022/01/25 05:58:12;;;;;;;32.00;11.80;;;;;;;;;;5206665;28;20067;-82
2022/01/25 06:00:44;;;;;;;30.13;11.93;;;;;;;;;;5205186;28;20056;-82
2022/01/25 06:03:17;;;;;;;31.07;11.90;;;;;;;;;;5171795;28;20049;-81
2022/01/25 06:05:54;;;;;;;36.20;13.43;;;;;;;;;;5168893;28;20283;-82
2022/01/25 06:08:27;;;;;;;36.63;12.15;;;;;;;;;;5216126;28;20043;-82
2022/01/25 06:11:00;;;;;;;35.03;13.35;;;;;;;;;;5250434;28;20044;-82
2022/01/25 06:13:32;;;;;;;36.73;12.77;;;;;;;;;;5228003;28;20048;-83
2022/01/25 06:16:09;;;;;;;34.97;12.75;;;;;;;;;;5247063;28;20051;-84
2022/01/25 06:18:45;;;;;;;36.10;13.70;;;;;;;;;;5226625;28;20047;-84
2022/01/25 06:21:21;;;;;;;31.73;11.77;;;;;;;;;;5234281;28;20049;-85
2022/01/25 06:23:56;;;;;;;37.70;13.00;;;;;;;;;;5221002;28;20055;-86
2022/01/25 06:26:29;;;;;;;40.70;14.63;;;;;;;;;;5212512;28;20080;-84
2022/01/25 06:29:02;;;;;;;33.97;12.68;;;;;;;;;;5224629;28;20051;-84
2022/01/25 06:31:35;;;;;;;36.17;13.00;;;;;;;;;;5229044;28;20032;-85
2022/01/25 06:34:08;;;;;;;34.10;12.45;;;;;;;;;;5220594;28;20071;-84
2022/01/25 06:36:41;;;;;;;45.20;13.40;;;;;;;;;;5214584;28;20747;-84
2022/01/25 06:39:15;;;;;;;30.92;11.52;;;;;;;;;;5221101;28;20052;-83
2022/01/25 06:41:47;;;;;;;32.30;12.88;;;;;;;;;;5224380;28;20928;-84
2022/01/25 06:44:20;;;;;;;32.38;13.20;;;;;;;;;;5222148;28;20056;-83
2022/01/25 06:46:53;;;;;;;31.35;12.30;;;;;;;;;;5242220;28;20041;-84
2022/01/25 06:49:27;;;;;;;36.22;14.68;;;;;;;;;;5222280;28;20037;-84
2022/01/25 06:52:14;;;;;;;34.63;11.88;;;;;;;;;;5204920;28;20431;-84
2022/01/25 06:54:47;;;;;;;36.08;12.98;;;;;;;;;;5219175;28;20051;-83
2022/01/25 06:57:20;;;;;;;34.10;13.27;;;;;;;;;;5233481;28;20523;-84
2022/01/25 06:59:53;;;;;;;39.43;14.23;;;;;;;;;;5235447;28;20044;-85
2022/01/25 07:02:27;;;;;;;39.90;14.68;;;;;;;;;;5222137;28;20515;-84
2022/01/25 07:05:00;;;;;;;43.70;13.65;;;;;;;;;;5200972;28;20057;-83
2022/01/25 07:07:33;;;;;;;43.38;14.88;;;;;;;;;;5198572;28;20385;-84
2022/01/25 07:10:07;;;;;;;37.20;14.30;;;0.60;99.90;;;;;;5217355;28;20052;-84
2022/01/25 07:12:40;;;;;;;38.92;14.43;;;;;;;;;;5215895;28;20063;-84
2022/01/25 07:15:13;;;;;;;47.40;16.33;;;;;;;;;;5237271;28;20053;-83
2022/01/25 07:17:46;;;;;;;29.20;10.57;;;;;;;;;;5232505;28;20036;-84
2022/01/25 07:20:18;;;;;;;47.20;15.87;;;;;;;;;;5233854;28;20047;-84
2022/01/25 07:22:52;;;;;;;58.60;16.13;;;;;;;;;;5231022;28;20041;-82
2022/01/25 07:25:26;;;;;;;36.80;15.35;;;;;;;;;;5230554;28;20041;-83
2022/01/25 07:27:59;;;;;;;44.67;15.07;;;;;;;;;;5217276;28;20044;-82
2022/01/25 07:30:31;;;;;;;42.30;15.33;;;;;;;;;;5237210;28;20048;-81
2022/01/25 07:33:05;;;;;;;39.97;14.00;;;;;;;;;;5236082;28;20044;-83
2022/01/25 07:35:47;;;;;;;37.35;14.43;;;;;;;;;;5239444;28;20860;-82
2022/01/25 07:38:22;;;;;;;44.75;15.93;;;;;;;;;;5238744;28;20049;-83
2022/01/25 07:41:00;;;;;;;39.95;15.50;;;;;;;;;;5236363;28;20424;-82
2022/01/25 07:43:34;;;;;;;45.20;16.00;;;;;;;;;;5224779;28;20040;-82
2022/01/25 07:46:08;;;;;;;46.30;16.73;;;;;;;;;;5236193;28;20510;-82
2022/01/25 07:48:49;;;;;;;47.15;16.98;;;;;;;;;;5233346;28;20507;-82
2022/01/25 07:51:22;;;;;;;43.87;15.97;;;;;;;;;;5239235;28;20391;-82
2022/01/25 07:53:55;;;;;;;44.77;15.40;;;;;;;;;;5232083;28;20061;-83
2022/01/25 07:56:28;;;;;;;47.95;19.08;;;;;;;;;;5236771;28;20306;-82
2022/01/25 07:59:01;;;;;;;48.03;16.13;;;;;;;;;;5232677;28;20041;-82
2022/01/25 08:01:34;;;;;;;45.25;17.35;;;0.80;99.90;;;;;;5232804;28;20048;-83
2022/01/25 08:04:11;;;;;;;47.15;17.52;;;0.80;99.90;;;;;;5210495;28;20052;-82
2022/01/25 08:06:58;;;;;;;53.53;18.20;;;;;;;;;;5217158;28;20060;-82
2022/01/25 08:09:54;;;;;;;50.03;18.65;;;;;;;;;;5168771;28;20068;-81
2022/01/25 08:12:28;;;;;;;49.40;17.55;;;;;;;;;;5171156;28;20053;-82
2022/01/25 08:15:30;;;;;;;53.97;18.25;;;;;;;;;;5164301;28;20041;-82
2022/01/25 08:18:26;;;;;;;48.30;18.02;;;;;;;;;;5156593;28;20098;-82
2022/01/25 08:21:02;;;;;;;49.55;18.45;;;;;;;;;;5169873;28;20050;-82
2022/01/25 08:23:40;;;;;;;44.05;16.17;;;;;;;;;;5170622;28;20076;-82
2022/01/25 08:26:27;;;;;;;48.80;18.92;;;;;;;;;;5148064;28;20505;-83
2022/01/25 08:29:14;;;;;;;48.50;19.08;;;;;;;;;;5174949;28;20572;-82
2022/01/25 08:31:56;;;;;;;46.80;18.23;;;;;;;;;;5120105;28;20941;-82
2022/01/25 08:34:46;;;;;;;45.30;19.17;;;;;;;;;;5215149;28;20509;-82
2022/01/25 08:37:33;;;;;;;48.50;18.90;;;;;;;;;;5165922;28;20050;-83
2022/01/25 08:40:22;;;;;;;43.75;17.00;;;;;;;;;;5137074;28;20786;-82
2022/01/25 08:43:00;;;;;;;49.08;19.08;;;1.00;99.90;;;;;;5164682;28;20577;-81
2022/01/25 08:45:34;;;;;;;53.10;19.10;;;;;;;;;;5163985;28;20070;-83
2022/01/25 08:48:26;;;;;;;44.08;17.33;;;;;;;;;;5165463;28;20049;-82
2022/01/25 08:51:09;;;;;;;43.80;17.92;;;;;;;;;;5164282;28;20653;-82
2022/01/25 08:54:02;;;;;;;51.03;18.90;;;;;;;;;;5120127;28;20065;-81
2022/01/25 08:56:41;;;;;;;45.50;19.15;;;;;;;;;;5124809;28;22475;-83
2022/01/25 08:59:46;;;;;;;50.10;19.17;;;;;;;;;;5056634;29;20060;-83
2022/01/25 09:02:19;;;;;;;51.47;20.23;;;;;;;;;;5054995;29;20528;-82
2022/01/25 09:04:52;;;;;;;47.00;19.38;;;;;;;;;;5057567;29;20531;-82
2022/01/25 09:07:25;;;;;;;46.13;18.70;;;;;;;;;;5058491;28;21027;-82
2022/01/25 09:09:59;;;;;;;46.22;19.75;;;1.10;99.90;;;;;;5112531;28;20328;-82
2022/01/25 09:12:32;;;;;;;47.85;20.45;;;;;;;;;;5114855;28;20062;-82
2022/01/25 09:15:05;;;;;;;46.28;19.83;;;1.30;99.90;;;;;;5113995;28;20047;-81
2022/01/25 09:17:38;;;;;;;46.67;19.42;;;;;;;;;;5114733;28;20058;-82
2022/01/25 09:20:11;;;;;;;47.30;20.10;;;;;;;;;;5107980;28;20059;-83
2022/01/25 09:22:44;;;;;;;43.45;18.65;;;;;;;;;;5112941;28;20047;-82
2022/01/25 09:25:33;;;;;;;50.22;18.90;;;;;;;;;;5113034;28;20095;-82
2022/01/25 09:28:06;;;;;;;46.13;18.65;;;;;;;;;;5113915;28;20431;-82
2022/01/25 09:30:39;;;;;;;42.40;18.97;;;;;;;;;;5161553;28;20139;-83
2022/01/25 09:33:12;;;;;;;42.58;17.77;;;;;;;;;;5232504;28;20052;-84
2022/01/25 09:35:45;;;;;;;40.60;17.23;;;;;;;;;;5234305;28;20040;-83
2022/01/25 09:38:18;;;;;;;44.72;20.00;;;;;;;;;;5212855;28;20075;-83
2022/01/25 09:40:51;;;;;;;41.60;17.85;;;;;;;;;;5208115;28;20056;-83
2022/01/25 09:43:24;;;;;;;42.80;19.08;;;;;;;;;;5208781;28;20051;-86
2022/01/25 09:45:57;;;;;;;41.33;17.88;;;1.50;99.90;;;;;;5210568;28;20051;-84
2022/01/25 09:48:31;;;;;;;42.75;18.58;;;;;;;;;;5230755;28;20037;-85
2022/01/25 09:51:09;;;;;;;38.67;17.30;;;1.50;99.90;;;;;;5231245;28;20056;-84
2022/01/25 09:53:42;;;;;;;41.53;17.48;;;;;;;;;;5227574;28;20962;-83
2022/01/25 09:56:15;;;;;;;40.15;18.42;;;;;;;;;;5204620;28;20637;-82
2022/01/25 09:58:49;;;;;;;45.03;19.13;;;;;;;;;;5198314;28;20053;-84
2022/01/25 10:01:29;;;;;;;43.10;18.30;;;1.80;99.90;;;;;;5234691;28;20045;-84
2022/01/25 10:04:05;;;;;;;39.63;17.80;;;;;;;;;;5199501;28;20045;-83
2022/01/25 10:06:40;;;;;;;39.92;17.20;;;;;;;;;;5236647;28;20059;-82
2022/01/25 10:09:13;;;;;;;42.60;17.52;;;;;;;;;;5221723;28;20625;-83
2022/01/25 10:11:46;;;;;;;41.53;18.20;;;;;;;;;;5234986;28;21022;-83
2022/01/25 10:14:23;;;;;;;38.97;17.67;;;;;;;;;;5238367;28;20312;-85
2022/01/25 10:16:56;;;;;;;40.25;17.73;;;;;;;;;;5223957;28;20049;-83
2022/01/25 10:19:30;;;;;;;35.88;16.52;;;;;;;;;;5235221;28;20044;-83
2022/01/25 10:22:03;;;;;;;41.15;17.15;;;;;;;;;;5217333;28;20053;-81
2022/01/25 10:24:36;;;;;;;36.03;14.77;;;;;;;;;;5237281;28;20037;-82
2022/01/25 10:27:09;;;;;;;26.70;12.65;;;;;;;;;;5211359;28;20056;-82
2022/01/25 10:29:43;;;;;;;31.02;14.85;;;;;;;;;;5217213;28;20056;-82
2022/01/25 10:32:16;;;;;;;27.23;13.50;;;;;;;;;;5211654;28;20051;-82
2022/01/25 10:34:50;;;;;;;26.10;13.20;;;;;;;;;;5228850;28;20722;-84
2022/01/25 10:37:25;;;;;;;27.42;12.25;;;2.90;99.90;;;;;;5226776;28;20052;-84
2022/01/25 10:39:58;;;;;;;27.00;12.10;;;;;;;;;;5209336;28;20047;-83
2022/01/25 10:42:33;;;;;;;26.00;13.20;;;;;;;;;;5231607;28;20040;-83
2022/01/25 10:45:16;;;;;;;28.08;12.65;;;3.10;99.90;;;;;;5229796;28;20036;-82
2022/01/25 10:47:51;;;;;;;23.08;11.60;;;3.30;99.90;;;;;;5225681;28;20063;-83
2022/01/25 10:50:35;;;;;;;23.83;11.50;;;3.20;99.90;;;;;;5225966;28;20053;-82
2022/01/25 10:53:16;;;;;;;21.77;10.70;;;3.40;99.90;;;;;;5228494;28;20067;-82
2022/01/25 10:55:53;;;;;;;22.70;10.48;;;3.40;99.90;;;;;;5228491;28;20607;-83
2022/01/25 10:58:26;;;;;;;19.23;9.82;;;;;;;;;;5227591;28;20044;-83
2022/01/25 11:01:00;;;;;;;26.63;10.80;;;;;;;;;;5189131;28;20059;-81
2022/01/25 11:03:35;;;;;;;;;;;3.50;99.90;;;;;;5210369;28;20102;-83
2022/01/25 11:06:14;;;;;;;23.48;11.32;;;3.70;99.90;;;;;;5230992;28;21009;-83
2022/01/25 11:08:48;;;;;;;22.20;10.07;;;3.70;99.90;;;;;;5207665;28;20700;-83
2022/01/25 11:11:27;;;;;;;22.52;11.07;;;3.70;99.90;;;;;;5229835;28;20524;-83
2022/01/25 11:14:50;;;;;;;23.17;10.80;;;3.80;99.90;;;;;;5218506;28;20078;-82
2022/01/25 11:16:54;;;;;;;20.33;11.00;;;;;;;;;;5228459;28;20044;-84
2022/01/25 11:19:28;;;;;;;24.10;11.00;;;;;;;;;;5227821;28;20826;-84
2022/01/25 11:22:01;;;;;;;19.23;10.48;;;;;;;;;;5227457;28;20700;-82
2022/01/25 11:24:34;;;;;;;19.50;10.15;;;;;;;;;;5235476;28;20048;-83
2022/01/25 11:27:07;;;;;;;20.83;10.18;;;;;;;;;;5217810;28;20036;-83
2022/01/25 11:29:43;;;;;;;17.92;9.73;;;;;;;;;;5236296;28;20137;-83
2022/01/25 11:32:20;;;;;;;19.92;10.10;;;4.00;99.90;;;;;;5227193;28;20047;-84
2022/01/25 11:34:53;;;;;;;19.35;9.57;;;4.20;99.90;;;;;;5229033;28;20041;-82
2022/01/25 11:37:36;;;;;;;14.73;8.48;;;4.20;99.90;;;;;;5234203;28;20709;-83
2022/01/25 11:40:33;;;;;;;16.02;7.57;;;4.20;99.90;;;;;;5228640;28;20257;-83
2022/01/25 11:43:09;;;;;;;17.00;9.30;;;4.20;99.90;;;;;;5225449;28;20041;-84
2022/01/25 11:45:47;;;;;;;18.63;8.75;;;4.40;99.90;;;;;;5233401;28;20055;-83
2022/01/25 11:48:33;;;;;;;17.48;7.78;;;4.40;99.90;;;;;;5208646;28;20056;-84
2022/01/25 11:51:13;;;;;;;15.98;7.88;;;4.40;99.90;;;;;;5222551;28;20048;-84
2022/01/25 11:53:48;;;;;;;15.98;7.78;;;4.40;99.90;;;;;;5213048;28;20056;-84
2022/01/25 11:56:21;;;;;;;14.30;7.70;;;;;;;;;;5209460;28;20048;-84
2022/01/25 11:58:55;;;;;;;14.00;7.10;;;4.60;99.90;;;;;;5228983;28;20048;-84
2022/01/25 12:01:29;;;;;;;11.85;7.15;;;;;;;;;;5236154;28;20048;-84
2022/01/25 12:04:02;;;;;;;14.40;7.53;;;;;;;;;;5225830;28;20048;-84
2022/01/25 12:06:43;;;;;;;15.38;7.55;;;4.70;99.90;;;;;;5211930;28;20538;-84
2022/01/25 12:09:41;;;;;;;13.13;7.35;;;;;;;;;;5203878;28;20052;-84
2022/01/25 12:12:14;;;;;;;11.27;6.43;;;4.80;99.90;;;;;;5233567;28;20435;-85
2022/01/25 12:14:54;;;;;;;12.93;7.53;;;4.80;99.90;;;;;;5223294;28;20052;-85
2022/01/25 12:17:33;;;;;;;15.80;8.52;;;4.80;99.90;;;;;;5198341;28;20048;-85
2022/01/25 12:20:21;;;;;;;12.63;7.35;;;4.90;99.90;;;;;;5217854;28;20064;-85
2022/01/25 12:23:18;;;;;;;14.27;7.82;;;4.90;99.90;;;;;;5188674;28;20047;-84
2022/01/25 12:25:54;;;;;;;15.60;7.82;;;;;;;;;;5225263;28;20071;-85
2022/01/25 12:28:48;;;;;;;15.95;7.60;;;;;;;;;;5226973;28;20044;-85
2022/01/25 12:31:22;;;;;;;13.23;7.82;;;;;;;;;;5216474;28;20049;-84
2022/01/25 12:34:14;;;;;;;;;;;4.90;99.90;;;;;;5212676;28;20055;-85
2022/01/25 12:36:47;;;;;;;14.48;8.00;;;;;;;;;;5172679;28;20419;-85
2022/01/25 12:39:37;;;;;;;18.38;9.55;;;4.90;99.90;;;;;;5161601;28;20071;-85
2022/01/25 12:42:16;;;;;;;19.70;10.63;;;;;;;;;;5193722;28;20052;-85
2022/01/25 12:44:56;;;;;;;31.77;15.50;;;5.00;99.90;;;;;;5207978;28;20699;-83
2022/01/25 12:47:37;;;;;;;50.25;22.80;;;;;;;;;;5185858;28;20040;-85
2022/01/25 12:50:10;;;;;;;52.43;24.17;;;;;;;;;;5211026;28;20567;-85
2022/01/25 12:52:43;;;;;;;61.45;27.48;;;;;;;;;;5207195;28;20045;-84
2022/01/25 12:55:21;;;;;;;58.20;24.83;;;4.80;99.90;;;;;;5209388;28;20060;-85
2022/01/25 12:57:55;;;;;;;58.20;24.98;;;4.70;99.90;;;;;;5206794;28;20048;-85
2022/01/25 13:00:30;;;;;;;;;;;3.90;99.90;;;;;;5199648;28;20660;-85
2022/01/25 13:03:26;;;;;;;52.35;22.67;;;4.60;99.90;;;;;;5195947;28;19928;-85
2022/01/25 13:06:07;;;;;;;63.22;26.88;;;4.60;99.90;;;;;;5188609;28;20055;-85
2022/01/25 13:08:51;;;;;;;60.90;27.55;;;4.50;99.90;;;;;;5207004;28;20041;-86
2022/01/25 13:17:16;;;;;;;68.10;27.95;;;4.10;99.90;;;;;;5200245;28;19924;-85
2022/01/25 13:19:58;;;;;;;70.80;30.33;;;4.00;99.90;;;;;;5211807;28;20052;-85
2022/01/25 13:22:42;;;;;;;72.68;30.25;;;3.90;99.90;;;;;;5202955;28;20048;-86
2022/01/25 13:28:02;;;;;;;67.63;28.65;;;;;;;;;;5206251;28;20325;-86
2022/01/25 13:30:43;;;;;;;67.85;28.88;;;;;;;;;;5188125;28;21007;-85
2022/01/25 13:33:19;;;;;;;76.60;29.98;;;3.70;99.90;;;;;;5183997;28;20052;-85
2022/01/25 13:35:56;;;;;;;65.63;28.75;;;3.70;99.90;;;;;;5172221;28;21388;-86
2022/01/25 13:38:36;;;;;;;66.97;30.20;;;3.80;99.90;;;;;;5194364;28;20746;-85
2022/01/25 13:46:38;;;;;;;72.50;29.85;;;3.70;99.90;;;;;;5196862;28;20048;-85
2022/01/25 13:49:17;;;;;;;69.53;31.70;;;;;;;;;;5170979;28;22316;-86
2022/01/25 13:52:23;;;;;;;72.78;29.00;;;;;;;;;;5196631;28;20048;-86
2022/01/25 13:55:10;;;;;;;71.93;27.57;;;3.60;99.90;;;;;;5207565;28;20045;-85
2022/01/25 13:57:43;;;;;;;66.40;27.60;;;;;;;;;;5207116;28;20712;-85
2022/01/25 14:00:17;;;;;;;65.85;27.25;;;3.60;99.90;;;;;;5192484;28;20045;-85
2022/01/25 14:02:52;;;;;;;68.07;28.40;;;3.60;99.90;;;;;;5200467;28;20047;-87
2022/01/25 14:05:26;;;;;;;67.10;30.33;;;;;;;;;;5193825;28;20140;-86
2022/01/25 14:07:59;;;;;;;65.83;30.97;;;;;;;;;;5164072;28;20045;-87
2022/01/25 14:10:33;;;;;;;67.43;29.50;;;;;;;;;;5170809;28;20306;-87
2022/01/25 14:22:02;;;;;;;63.95;26.90;;;3.10;99.90;;;;;;5204236;28;20598;-86
2022/01/25 14:24:36;;;;;;;69.38;29.35;;;;;;;;;;5184476;28;20055;-85
2022/01/25 14:27:50;;;;;;;67.60;30.65;;;2.90;99.90;;;;;;5211979;28;20044;-85
2022/01/25 14:30:23;;;;;;;75.65;31.45;;;;;;;;;;5197171;28;20045;-83
2022/01/25 14:33:02;;;;;;;64.17;30.03;;;2.70;99.90;;;;;;5220565;28;20051;-83
2022/01/25 14:35:44;;;;;;;65.57;28.20;;;2.70;99.90;;;;;;5198404;28;20299;-84
2022/01/25 14:38:20;;;;;;;69.53;29.67;;;;;;;;;;5203292;28;20529;-83
2022/01/25 14:40:59;;;;;;;69.68;29.58;;;2.70;99.90;;;;;;5191151;28;20059;-84
2022/01/25 14:43:34;;;;;;;65.55;29.92;;;2.70;99.90;;;;;;5197490;28;20645;-84
2022/01/25 14:46:10;;;;;;;69.63;29.98;;;2.70;99.90;;;;;;5176927;28;20040;-83
2022/01/25 14:48:45;;;;;;;58.90;27.63;;;2.70;99.90;;;;;;5207755;28;20044;-82
2022/01/25 14:51:20;;;;;;;68.82;30.25;;;;;;;;;;5212729;28;20048;-83
2022/01/25 14:53:54;;;;;;;62.20;27.97;;;2.70;99.90;;;;;;5206081;28;20048;-81
2022/01/25 14:56:35;;;;;;;62.55;27.10;;;2.80;99.90;;;;;;5196626;28;20327;-83
2022/01/25 14:59:28;;;;;;;63.58;29.10;;;2.80;99.90;;;;;;5200330;28;20440;-83
2022/01/25 15:02:06;;;;;;;69.55;29.65;;;2.70;99.90;;;;;;5191797;28;20060;-83
2022/01/25 15:04:45;;;;;;;67.38;28.88;;;2.70;99.90;;;;;;5215315;28;20040;-84
2022/01/25 15:07:30;;;;;;;65.78;28.17;;;2.70;99.90;;;;;;5204622;28;20056;-83
2022/01/25 15:10:07;;;;;;;68.80;28.45;;;2.70;99.90;;;;;;5204822;28;20047;-83
2022/01/25 15:12:47;;;;;;;66.50;28.52;;;;;;;;;;5189644;28;20564;-84
2022/01/25 15:15:27;;;;;;;63.58;27.48;;;;;;;;;;5213829;28;20044;-83
2022/01/25 15:18:00;;;;;;;63.17;27.38;;;;;;;;;;5200160;28;20048;-84
2022/01/25 15:20:34;;;;;;;64.32;29.23;;;;;;;;;;5187759;28;20053;-84
2022/01/25 15:23:07;;;;;;;62.95;28.40;;;;;;;;;;5204121;28;20047;-83
2022/01/25 15:25:43;;;;;;;65.80;28.58;;;;;;;;;;5192218;28;20052;-85
2022/01/25 15:28:19;;;;;;;68.35;30.00;;;;;;;;;;5215614;28;20049;-83
2022/01/25 15:30:52;;;;;;;63.03;28.20;;;;;;;;;;5186331;28;20049;-84
2022/01/25 15:33:25;;;;;;;63.22;27.25;;;;;;;;;;5193368;28;20540;-85
2022/01/25 15:36:09;;;;;;;61.42;26.00;;;2.50;99.90;;;;;;5189993;28;20057;-83
2022/01/25 15:38:47;;;;;;;74.05;29.63;;;2.40;99.90;;;;;;5195507;28;20671;-84
2022/01/25 15:41:23;;;;;;;61.17;28.92;;;;;;;;;;5182123;28;20063;-83
2022/01/25 15:44:00;;;;;;;66.22;28.17;;;;;;;;;;5216308;28;20041;-84
2022/01/25 15:49:25;;;;;;;60.70;28.90;;;;;;;;;;5208582;28;20048;-84
2022/01/25 15:51:58;;;;;;;70.65;29.80;;;;;;;;;;5215413;28;20045;-84
2022/01/25 15:54:31;;;;;;;65.55;29.67;;;;;;;;;;5205705;28;20055;-84
2022/01/25 15:57:06;;;;;;;66.28;29.13;;;2.20;99.90;;;;;;5179673;28;20523;-82
2022/01/25 15:59:39;;;;;;;65.13;27.52;;;;;;;;;;5188846;28;20049;-85
2022/01/25 16:02:15;;;;;;;69.00;29.45;;;2.10;99.90;;;;;;5169369;28;20063;-82
2022/01/25 16:04:52;;;;;;;64.15;27.98;;;;;;;;;;5218837;28;20178;-84
2022/01/25 16:07:29;;;;;;;66.80;28.58;;;;;;;;;;5224726;28;20527;-83
2022/01/25 16:10:02;;;;;;;69.10;28.70;;;;;;;;;;5196913;28;20044;-83
2022/01/25 16:12:36;;;;;;;70.72;29.58;;;;;;;;;;5216334;28;20052;-84
2022/01/25 16:15:09;;;;;;;57.00;25.58;;;;;;;;;;5204415;28;20453;-84
2022/01/25 16:17:42;;;;;;;59.83;27.88;;;;;;;;;;5169614;28;20075;-85
2022/01/25 16:20:16;;;;;;;67.10;28.85;;;;;;;;;;5196827;28;20041;-83
2022/01/25 16:22:49;;;;;;;65.07;28.38;;;;;;;;;;5192924;28;20045;-84
2022/01/25 16:25:23;;;;;;;65.53;28.08;;;1.90;99.90;;;;;;5186442;28;20064;-84
2022/01/25 16:27:56;;;;;;;58.85;27.48;;;;;;;;;;5189688;28;20048;-85
2022/01/25 16:30:29;;;;;;;72.95;29.83;;;1.90;99.90;;;;;;5187544;28;20048;-83
2022/01/25 16:33:02;;;;;;;77.18;30.88;;;1.80;99.90;;;;;;5209820;28;21297;-85
2022/01/25 16:35:35;;;;;;;;;;;1.80;99.90;;;;;;5211291;28;20036;-84
2022/01/25 16:38:08;;;;;;;68.40;28.92;;;;;;;;;;5223800;28;19920;-82
2022/01/25 16:40:41;;;;;;;73.90;30.77;;;;;;;;;;5237359;28;20040;-83
2022/01/25 16:43:14;;;;;;;72.57;31.08;;;;;;;;;;5227929;28;20049;-84
2022/01/25 16:45:47;;;;;;;77.60;34.17;;;1.90;99.90;;;;;;5220053;28;20133;-83
2022/01/25 16:48:20;;;;;;;;;;;4.00;99.90;;;;;;5218236;28;20049;-84